Time;durP1;ratioP1;P1;durP2;ratioP2;P2;SDS_P1;SDS_P2;PMS_P1;PMS_P2;Temp;Humidity;BMP_temperature;BMP_pressure;BME280_temperature;BME280_humidity;BME280_pressure;Samples;Min_cycle;Max_cycle;Signal;HPM_P1;HPM_P2
2022/12/14 00:00:37;;;;;;;9.10;1.88;;;14.70;86.20;;;;;;5051932;28;20021;-92
2022/12/14 00:03:03;;;;;;;4.68;2.15;;;14.70;86.30;;;;;;5034351;28;20087;-91
2022/12/14 00:05:28;;;;;;;2.85;2.10;;;14.70;86.30;;;;;;5034182;28;20478;-91
2022/12/14 00:07:54;;;;;;;3.30;2.00;;;14.70;86.40;;;;;;5034520;28;20045;-92
2022/12/14 00:10:19;;;;;;;3.25;1.85;;;14.70;86.50;;;;;;5034056;28;20444;-91
2022/12/14 00:12:45;;;;;;;4.70;2.28;;;14.70;86.50;;;;;;5051969;28;20466;-91
2022/12/14 00:15:11;;;;;;;5.05;1.90;;;14.70;86.50;;;;;;5034038;28;20025;-91
2022/12/14 00:17:36;;;;;;;6.07;2.20;;;14.70;86.50;;;;;;5034083;28;20071;-91
2022/12/14 00:20:02;;;;;;;10.32;2.17;;;14.70;86.60;;;;;;5034019;28;20017;-91
2022/12/14 00:22:28;;;;;;;8.25;2.10;;;14.70;86.60;;;;;;5033973;28;20112;-92
2022/12/14 00:24:53;;;;;;;4.40;1.98;;;14.70;86.70;;;;;;5034031;28;20029;-91
2022/12/14 00:27:19;;;;;;;3.60;1.98;;;14.60;86.70;;;;;;5034002;28;20033;-91
2022/12/14 00:29:44;;;;;;;5.50;2.65;;;14.70;86.70;;;;;;5033825;28;20025;-91
2022/12/14 00:32:10;;;;;;;5.30;2.17;;;14.60;86.70;;;;;;5033846;28;20025;-91
2022/12/14 00:34:35;;;;;;;6.25;1.95;;;14.70;86.80;;;;;;5033963;28;20048;-91
2022/12/14 00:37:01;;;;;;;11.90;1.77;;;14.60;86.70;;;;;;5033873;28;20021;-91
2022/12/14 00:39:26;;;;;;;4.80;1.83;;;14.60;86.80;;;;;;5049859;28;20021;-90
2022/12/14 00:41:52;;;;;;;5.35;2.25;;;14.60;86.90;;;;;;5033746;28;20032;-91
2022/12/14 00:44:18;;;;;;;4.85;2.25;;;14.60;87.00;;;;;;5035829;28;20035;-91
2022/12/14 00:46:43;;;;;;;3.33;1.83;;;14.60;87.00;;;;;;5050391;28;20037;-91
2022/12/14 00:49:09;;;;;;;3.47;1.73;;;14.60;87.00;;;;;;5050414;28;20091;-92
2022/12/14 00:51:35;;;;;;;5.10;2.13;;;14.60;87.00;;;;;;5050213;28;20551;-91
2022/12/14 00:54:00;;;;;;;3.30;1.60;;;14.60;87.10;;;;;;5051684;28;20033;-91
2022/12/14 00:56:26;;;;;;;4.32;1.92;;;14.60;87.10;;;;;;5053329;28;20389;-92
2022/12/14 00:58:52;;;;;;;5.70;2.17;;;14.60;87.00;;;;;;5052161;28;20469;-92
2022/12/14 01:01:18;;;;;;;3.47;2.15;;;14.60;87.10;;;;;;5045879;28;20112;-91
2022/12/14 01:03:44;;;;;;;5.38;1.88;;;14.70;87.10;;;;;;5029038;28;20072;-91
2022/12/14 01:06:21;;;;;;;10.45;2.25;;;14.70;87.20;;;;;;5037330;28;20029;-90
2022/12/14 01:08:47;;;;;;;5.93;2.00;;;14.70;87.30;;;;;;5036748;28;20497;-91
2022/12/14 01:11:14;;;;;;;4.47;2.38;;;14.70;87.40;;;;;;5036864;28;20436;-92
2022/12/14 01:13:41;;;;;;;9.18;2.15;;;14.70;87.40;;;;;;5037168;28;20082;-92
2022/12/14 01:16:12;;;;;;;11.23;1.83;;;14.70;87.40;;;;;;5036803;28;20061;-92
2022/12/14 01:18:39;;;;;;;6.22;2.03;;;14.70;87.50;;;;;;5054421;28;20028;-92
2022/12/14 01:21:11;;;;;;;9.63;2.17;;;14.70;87.50;;;;;;5036751;28;20056;-91
2022/12/14 01:23:37;;;;;;;7.03;2.47;;;14.70;87.60;;;;;;5036637;28;20395;-92
2022/12/14 01:26:03;;;;;;;31.02;2.65;;;14.70;87.60;;;;;;5036586;28;20021;-91
2022/12/14 01:28:28;;;;;;;8.75;2.25;;;14.70;87.60;;;;;;5036517;28;20393;-92
2022/12/14 01:30:54;;;;;;;6.07;2.30;;;14.70;87.70;;;;;;5036283;28;20032;-92
2022/12/14 01:33:19;;;;;;;7.80;2.78;;;14.70;87.70;;;;;;5038089;28;20036;-91
2022/12/14 01:35:45;;;;;;;4.93;2.33;;;14.60;87.50;;;;;;5036526;28;20025;-91
2022/12/14 01:38:10;;;;;;;5.68;2.88;;;14.60;87.70;;;;;;5037025;28;20019;-91
2022/12/14 01:40:36;;;;;;;5.00;2.30;;;14.60;87.70;;;;;;5052920;28;20036;-92
2022/12/14 01:43:01;;;;;;;7.03;2.20;;;14.60;87.70;;;;;;5036477;28;20025;-92
2022/12/14 01:45:27;;;;;;;6.43;1.80;;;14.60;87.70;;;;;;5036330;28;20028;-91
2022/12/14 01:48:01;;;;;;;9.88;2.53;;;14.60;87.70;;;;;;5036375;28;20059;-92
2022/12/14 01:50:53;;;;;;;6.93;2.00;;;14.60;87.70;;;;;;5036143;28;20083;-92
2022/12/14 01:53:21;;;;;;;7.22;2.15;;;14.60;87.70;;;;;;5031606;28;20063;-92
2022/12/14 01:55:51;;;;;;;6.53;1.77;;;14.60;87.70;;;;;;5036069;28;20478;-91
2022/12/14 01:58:22;;;;;;;8.32;2.10;;;14.60;87.80;;;;;;5053951;28;20025;-91
2022/12/14 02:00:53;;;;;;;8.10;2.05;;;14.60;87.80;;;;;;5035838;28;20049;-92
2022/12/14 02:03:28;;;;;;;6.25;2.00;;;14.60;87.80;;;;;;5036101;28;20032;-91
2022/12/14 02:06:24;;;;;;;6.10;1.98;;;14.70;87.90;;;;;;5015934;28;20075;-92
2022/12/14 02:08:52;;;;;;;6.10;2.35;;;14.70;87.90;;;;;;5011993;28;20128;-91
2022/12/14 02:11:37;;;;;;;6.47;1.85;;;14.70;88.00;;;;;;5027433;28;20060;-91
2022/12/14 02:14:03;;;;;;;10.52;2.08;;;14.70;88.30;;;;;;5036006;28;20509;-91
2022/12/14 02:16:29;;;;;;;2.72;1.67;;;14.70;88.50;;;;;;5035754;28;20060;-91
2022/12/14 02:18:55;;;;;;;5.88;2.05;;;14.70;88.60;;;;;;5035795;28;20048;-91
2022/12/14 02:21:42;;;;;;;6.35;1.90;;;14.70;88.70;;;;;;5035733;28;20059;-91
2022/12/14 02:24:37;;;;;;;6.22;1.60;;;14.70;88.90;;;;;;5035631;28;20121;-92
2022/12/14 02:27:26;;;;;;;16.80;2.38;;;14.70;88.90;;;;;;5035670;28;20021;-91
2022/12/14 02:29:58;;;;;;;5.07;2.10;;;14.70;88.90;;;;;;5035358;28;20024;-91
2022/12/14 02:32:32;;;;;;;4.22;2.28;;;14.70;88.90;;;;;;5035076;28;20040;-91
2022/12/14 02:35:32;;;;;;;6.40;2.20;;;14.70;88.90;;;;;;5053247;28;20474;-91
2022/12/14 02:38:01;;;;;;;;;;;14.70;88.90;;;;;;5052317;28;20025;-92
2022/12/14 02:40:32;;;;;;;5.00;1.85;;;14.70;88.90;;;;;;5035192;28;19908;-91
2022/12/14 02:43:06;;;;;;;11.40;1.75;;;14.70;88.90;;;;;;5035300;28;20025;-91
2022/12/14 02:45:52;;;;;;;7.85;2.10;;;14.60;88.80;;;;;;5035317;28;20165;-92
2022/12/14 02:48:23;;;;;;;5.18;1.60;;;14.70;88.80;;;;;;5038510;28;20037;-91
2022/12/14 02:51:24;;;;;;;3.70;1.85;;;14.70;88.70;;;;;;5035636;28;20139;-92
2022/12/14 02:54:16;;;;;;;3.67;1.67;;;14.70;88.70;;;;;;5035165;28;20068;-91
2022/12/14 02:56:52;;;;;;;5.45;1.40;;;14.70;88.70;;;;;;5034516;28;20040;-92
2022/12/14 02:59:20;;;;;;;10.00;2.35;;;14.70;88.60;;;;;;5035048;28;20025;-92
2022/12/14 03:01:48;;;;;;;5.72;1.95;;;14.70;88.60;;;;;;5032955;28;20029;-91
2022/12/14 03:04:15;;;;;;;2.22;1.35;;;14.70;88.60;;;;;;5014929;28;20025;-91
2022/12/14 03:07:01;;;;;;;6.75;1.98;;;14.70;88.70;;;;;;5032686;28;20148;-91
2022/12/14 03:09:29;;;;;;;3.33;1.65;;;14.70;88.70;;;;;;5014835;28;20030;-91
2022/12/14 03:12:02;;;;;;;4.30;2.53;;;14.70;88.70;;;;;;5032504;28;20021;-92
2022/12/14 03:14:53;;;;;;;3.80;1.70;;;14.70;88.80;;;;;;5015019;28;20402;-92
2022/12/14 03:17:28;;;;;;;6.45;1.80;;;14.70;88.80;;;;;;5042742;28;20021;-91
2022/12/14 03:20:04;;;;;;;5.95;1.50;;;14.70;88.90;;;;;;5034276;28;20025;-91
2022/12/14 03:22:40;;;;;;;2.70;2.42;;;14.60;88.90;;;;;;5034714;28;20048;-91
2022/12/14 03:25:22;;;;;;;4.18;1.92;;;14.60;88.80;;;;;;5031142;28;20172;-91
2022/12/14 03:27:54;;;;;;;3.15;1.80;;;14.60;88.80;;;;;;5031992;28;20025;-91
2022/12/14 03:30:20;;;;;;;5.82;1.92;;;14.60;88.80;;;;;;5034001;28;20020;-92
2022/12/14 03:32:52;;;;;;;2.83;1.50;;;14.60;88.80;;;;;;5032301;28;20052;-91
2022/12/14 03:35:26;;;;;;;13.75;1.88;;;14.70;88.90;;;;;;5052268;28;20105;-92
2022/12/14 03:38:19;;;;;;;2.50;1.60;;;14.70;89.00;;;;;;5046067;28;20124;-91
2022/12/14 03:40:56;;;;;;;2.65;1.63;;;14.70;89.00;;;;;;5014701;28;20028;-92
2022/12/14 03:43:36;;;;;;;2.85;1.73;;;14.60;89.00;;;;;;5014787;28;20390;-90
2022/12/14 03:46:10;;;;;;;3.22;1.50;;;14.70;89.00;;;;;;5014505;28;20112;-92
2022/12/14 03:48:55;;;;;;;2.83;1.65;;;14.70;89.00;;;;;;5014434;28;20397;-91
2022/12/14 03:51:32;;;;;;;3.75;2.03;;;14.70;89.00;;;;;;5014608;28;20093;-91
2022/12/14 03:54:20;;;;;;;3.05;1.90;;;14.70;89.10;;;;;;5016639;28;20022;-92
2022/12/14 03:56:54;;;;;;;2.17;1.40;;;14.70;89.10;;;;;;5034088;28;20031;-91
2022/12/14 03:59:34;;;;;;;9.32;1.80;;;14.70;89.10;;;;;;5034169;28;20025;-92
2022/12/14 04:02:32;;;;;;;2.78;1.60;;;14.70;89.20;;;;;;5034201;28;20135;-92
2022/12/14 04:05:01;;;;;;;3.83;1.77;;;14.70;89.20;;;;;;5034203;28;20025;-92
2022/12/14 04:07:43;;;;;;;8.65;2.28;;;14.70;89.30;;;;;;5052106;28;20055;-91
2022/12/14 04:18:58;;;;;;;8.02;1.65;;;14.70;89.40;;;;;;5051673;28;20036;-92
2022/12/14 04:21:30;;;;;;;6.45;1.60;;;14.60;89.30;;;;;;5034131;28;20155;-91
2022/12/14 04:26:57;;;;;;;4.68;2.47;;;14.60;89.30;;;;;;5051977;28;20032;-92
2022/12/14 04:32:16;;;;;;;8.98;1.73;;;14.70;89.10;;;;;;5055580;28;20071;-91
2022/12/14 04:34:46;;;;;;;3.35;1.40;;;14.60;89.00;;;;;;5037633;28;20029;-91
2022/12/14 04:37:17;;;;;;;8.80;2.50;;;14.70;89.10;;;;;;5037722;28;20025;-91
2022/12/14 04:40:00;;;;;;;5.97;2.00;;;14.70;89.00;;;;;;5037316;28;20115;-91
2022/12/14 04:42:32;;;;;;;2.00;1.58;;;14.70;89.00;;;;;;5037476;28;20055;-91
2022/12/14 04:45:10;;;;;;;3.42;1.58;;;14.70;89.00;;;;;;5037545;28;20121;-91
2022/12/14 04:47:43;;;;;;;2.53;1.58;;;14.60;89.00;;;;;;5022054;28;20029;-90
2022/12/14 04:50:14;;;;;;;5.82;1.48;;;14.70;89.00;;;;;;5017390;28;20487;-91
2022/12/14 04:52:51;;;;;;;3.80;1.45;;;14.70;88.90;;;;;;5017346;28;20540;-92
2022/12/14 04:55:35;;;;;;;4.13;1.67;;;14.70;89.00;;;;;;5034945;28;20021;-91
2022/12/14 04:58:25;;;;;;;2.80;1.77;;;14.60;88.90;;;;;;5017426;28;20026;-91
2022/12/14 05:01:19;;;;;;;2.67;1.85;;;14.60;89.00;;;;;;5017659;28;20024;-91
2022/12/14 05:03:59;;;;;;;6.60;1.70;;;14.60;89.00;;;;;;5020991;28;20561;-91
2022/12/14 05:06:50;;;;;;;9.60;2.10;;;14.60;89.00;;;;;;5021724;28;20111;-91
2022/12/14 05:09:54;;;;;;;6.32;1.98;;;14.70;89.10;;;;;;5036825;28;20021;-91
2022/12/14 05:12:27;;;;;;;10.73;1.80;;;14.70;89.10;;;;;;5036656;28;20055;-91
2022/12/14 05:15:13;;;;;;;8.43;1.75;;;14.80;89.20;;;;;;5043345;28;20025;-93
2022/12/14 05:17:39;;;;;;;16.10;2.35;;;14.80;89.20;;;;;;5040571;28;20118;-91
2022/12/14 05:20:13;;;;;;;26.60;2.40;;;14.90;89.10;;;;;;5053291;28;20083;-91
2022/12/14 05:22:39;;;;;;;14.48;2.22;;;14.90;89.10;;;;;;5032240;28;20455;-91
2022/12/14 05:25:05;;;;;;;11.25;2.20;;;14.90;89.10;;;;;;5035122;28;20102;-91
2022/12/14 05:27:31;;;;;;;9.38;3.03;;;14.90;89.00;;;;;;5036783;28;20073;-91
2022/12/14 05:29:57;;;;;;;10.70;2.72;;;15.00;89.10;;;;;;5036376;28;20474;-92
2022/12/14 05:32:22;;;;;;;3.22;2.00;;;15.00;89.00;;;;;;5036418;28;20036;-92
2022/12/14 05:34:48;;;;;;;5.00;2.13;;;15.00;89.00;;;;;;5036244;28;20032;-91
2022/12/14 05:37:13;;;;;;;5.05;2.03;;;15.00;88.90;;;;;;5036607;28;20048;-91
2022/12/14 05:39:39;;;;;;;9.55;2.15;;;15.10;89.00;;;;;;5036320;28;20426;-91
2022/12/14 05:42:04;;;;;;;4.68;1.80;;;15.10;89.00;;;;;;5036056;28;20025;-91
2022/12/14 05:44:30;;;;;;;12.75;2.35;;;15.10;89.00;;;;;;5036397;28;20440;-91
2022/12/14 05:46:56;;;;;;;8.38;2.30;;;15.10;89.00;;;;;;5036484;28;20036;-92
2022/12/14 05:49:22;;;;;;;13.38;2.22;;;15.20;89.20;;;;;;5036050;28;20543;-92
2022/12/14 05:51:48;;;;;;;6.28;1.90;;;15.20;89.10;;;;;;5036283;28;20025;-92
2022/12/14 05:54:14;;;;;;;4.85;2.42;;;15.20;89.50;;;;;;5036150;28;20063;-92
2022/12/14 05:56:40;;;;;;;6.80;2.13;;;15.20;89.00;;;;;;5036109;28;20048;-91
2022/12/14 05:59:05;;;;;;;3.67;1.70;;;15.20;88.90;;;;;;5035864;28;20551;-91
2022/12/14 06:01:31;;;;;;;8.73;1.83;;;15.30;88.90;;;;;;5035932;28;20398;-91
2022/12/14 06:03:57;;;;;;;5.97;1.92;;;15.30;88.80;;;;;;5035992;28;20029;-91
2022/12/14 06:06:23;;;;;;;7.55;2.50;;;15.30;88.80;;;;;;5035748;28;20033;-90
2022/12/14 06:08:49;;;;;;;4.82;1.88;;;15.30;88.70;;;;;;5035718;28;20029;-91
2022/12/14 06:11:20;;;;;;;4.75;2.08;;;15.30;88.60;;;;;;5035859;28;20098;-91
2022/12/14 06:13:46;;;;;;;19.83;8.98;;;15.40;88.30;;;;;;5035509;28;20025;-88
2022/12/14 06:16:15;;;;;;;23.55;10.15;;;13.30;70.00;;;;;;5051110;28;20040;-89
2022/12/14 06:18:52;;;;;;;16.35;10.35;;;11.00;70.10;;;;;;5050084;28;20079;-92
2022/12/14 06:21:19;;;;;;;20.45;11.80;;;10.30;67.90;;;;;;5036463;28;20021;-92
2022/12/14 06:23:45;;;;;;;22.30;10.27;;;8.90;66.00;;;;;;5035667;28;20108;-91
2022/12/14 06:26:11;;;;;;;15.45;8.38;;;10.50;75.50;;;;;;5035498;28;20119;-91
2022/12/14 06:28:37;;;;;;;17.08;7.97;;;11.90;74.40;;;;;;5035508;28;20052;-90
2022/12/14 06:31:03;;;;;;;12.85;6.97;;;12.80;73.40;;;;;;5035220;28;20056;-91
2022/12/14 06:33:31;;;;;;;12.60;6.28;;;13.20;73.20;;;;;;5035641;28;20439;-93
2022/12/14 06:35:57;;;;;;;12.70;6.75;;;13.50;73.30;;;;;;5035859;28;20017;-92
2022/12/14 06:38:22;;;;;;;11.05;6.43;;;13.70;73.90;;;;;;5035183;28;20024;-91
2022/12/14 06:40:48;;;;;;;11.85;5.60;;;13.80;74.50;;;;;;5025040;28;20029;-91
2022/12/14 06:43:14;;;;;;;11.82;5.40;;;13.80;75.00;;;;;;5034569;28;20237;-92
2022/12/14 06:45:39;;;;;;;9.80;4.47;;;13.80;75.60;;;;;;5032296;28;20055;-93
2022/12/14 06:48:05;;;;;;;8.52;4.57;;;13.90;76.20;;;;;;5032465;28;20041;-92
2022/12/14 06:50:31;;;;;;;8.70;4.60;;;13.90;76.70;;;;;;5029520;28;20075;-91
2022/12/14 06:52:56;;;;;;;7.63;4.55;;;13.90;77.40;;;;;;5034872;28;20036;-92
2022/12/14 06:55:23;;;;;;;7.85;4.55;;;13.90;77.80;;;;;;5035963;28;20024;-91
2022/12/14 06:57:50;;;;;;;6.82;3.60;;;14.00;78.20;;;;;;5031235;28;20025;-92
2022/12/14 07:00:20;;;;;;;6.63;3.72;;;14.00;78.70;;;;;;5016494;28;20025;-92
2022/12/14 07:02:46;;;;;;;7.75;3.35;;;14.00;79.10;;;;;;5024708;28;20025;-92
2022/12/14 07:05:12;;;;;;;8.10;3.65;;;14.00;79.50;;;;;;5016399;28;20025;-93
2022/12/14 07:07:38;;;;;;;8.45;3.80;;;14.00;79.80;;;;;;5016887;28;20633;-90
2022/12/14 07:10:05;;;;;;;6.43;3.92;;;14.10;80.10;;;;;;5016662;28;20442;-92
2022/12/14 07:12:30;;;;;;;10.95;3.40;;;14.10;80.40;;;;;;5031152;28;20120;-92
2022/12/14 07:14:57;;;;;;;6.80;2.75;;;14.10;80.60;;;;;;5036388;28;20052;-91
2022/12/14 07:17:23;;;;;;;6.70;3.20;;;14.10;80.80;;;;;;5035451;28;20024;-86
2022/12/14 07:19:48;;;;;;;6.97;3.15;;;14.20;81.10;;;;;;5034869;28;20112;-88
2022/12/14 07:22:14;;;;;;;6.70;3.17;;;14.20;81.20;;;;;;5032729;28;20045;-87
2022/12/14 07:24:40;;;;;;;6.13;3.08;;;14.20;81.40;;;;;;5023015;28;20029;-88
2022/12/14 07:27:06;;;;;;;7.82;2.90;;;14.20;81.60;;;;;;5053075;28;20029;-88
2022/12/14 07:29:32;;;;;;;5.47;2.80;;;14.20;81.70;;;;;;5034012;28;20155;-87
2022/12/14 07:31:57;;;;;;;7.45;3.17;;;14.30;82.00;;;;;;5030013;28;20107;-86
2022/12/14 07:34:23;;;;;;;5.85;2.55;;;14.20;82.10;;;;;;5053274;28;20045;-88
2022/12/14 07:36:50;;;;;;;6.35;3.13;;;14.30;82.30;;;;;;5033861;28;20032;-87
2022/12/14 07:39:16;;;;;;;5.30;2.83;;;14.30;82.40;;;;;;5034906;28;20036;-88
2022/12/14 07:41:43;;;;;;;4.70;2.38;;;14.30;82.60;;;;;;5030267;28;20159;-87
2022/12/14 07:44:09;;;;;;;4.85;2.70;;;14.30;82.70;;;;;;5033818;28;20031;-86
2022/12/14 07:46:35;;;;;;;4.63;2.30;;;14.30;82.90;;;;;;5052157;28;20032;-87
2022/12/14 07:49:01;;;;;;;7.80;2.63;;;14.30;83.00;;;;;;5051859;28;20037;-87
2022/12/14 07:51:30;;;;;;;4.55;2.33;;;14.30;83.00;;;;;;5047072;28;20072;-87
2022/12/14 07:53:56;;;;;;;4.05;2.28;;;14.30;83.20;;;;;;5033724;28;20086;-87
2022/12/14 07:56:24;;;;;;;3.10;1.92;;;14.30;83.20;;;;;;5024375;28;20061;-87
2022/12/14 07:58:50;;;;;;;4.40;2.30;;;14.30;83.30;;;;;;5049244;28;20037;-86
2022/12/14 08:01:18;;;;;;;7.97;2.35;;;14.30;83.30;;;;;;5034252;28;20071;-87
2022/12/14 08:03:49;;;;;;;4.60;2.80;;;14.30;83.40;;;;;;5050900;28;20028;-86
2022/12/14 08:06:16;;;;;;;3.75;2.30;;;14.30;83.40;;;;;;5038459;28;20039;-87
2022/12/14 08:08:42;;;;;;;5.30;2.30;;;14.30;83.50;;;;;;5049049;28;20044;-87
2022/12/14 08:11:08;;;;;;;4.50;2.53;;;14.30;83.50;;;;;;5048205;28;20068;-87
2022/12/14 08:13:34;;;;;;;6.95;2.42;;;14.30;83.50;;;;;;5031512;28;20021;-87
2022/12/14 08:16:05;;;;;;;5.38;2.60;;;14.30;83.50;;;;;;5056497;28;20025;-87
2022/12/14 08:18:32;;;;;;;3.38;2.33;;;14.40;83.60;;;;;;5019306;28;20025;-88
2022/12/14 08:20:58;;;;;;;6.90;2.25;;;14.40;83.70;;;;;;5032485;28;20048;-87
2022/12/14 08:23:23;;;;;;;2.95;2.45;;;14.40;83.70;;;;;;5037851;28;20076;-87
2022/12/14 08:25:54;;;;;;;5.35;2.20;;;14.40;83.70;;;;;;5034422;28;20060;-87
2022/12/14 08:28:19;;;;;;;;;;;14.40;83.70;;;;;;5056798;28;20553;-86
2022/12/14 08:30:45;;;;;;;3.13;2.15;;;14.40;83.80;;;;;;5038725;28;19998;-87
2022/12/14 08:33:10;;;;;;;7.88;2.42;;;14.40;84.60;;;;;;5038562;28;20029;-87
2022/12/14 08:35:36;;;;;;;3.55;2.20;;;14.50;83.90;;;;;;5055689;28;20029;-87
2022/12/14 08:38:01;;;;;;;5.32;2.28;;;14.40;83.90;;;;;;5037910;28;20029;-86
2022/12/14 08:40:28;;;;;;;5.80;2.25;;;14.50;84.10;;;;;;5023323;28;20025;-86
2022/12/14 08:42:53;;;;;;;2.92;2.03;;;14.40;84.10;;;;;;5024101;28;20083;-87
2022/12/14 08:45:19;;;;;;;2.58;2.00;;;14.40;84.10;;;;;;5037997;28;20425;-86
2022/12/14 08:47:45;;;;;;;3.55;2.40;;;14.40;84.10;;;;;;5038284;28;20017;-86
2022/12/14 08:50:11;;;;;;;3.75;2.08;;;14.40;84.10;;;;;;5042753;28;20075;-88
2022/12/14 08:52:37;;;;;;;4.63;2.10;;;14.40;84.20;;;;;;5037974;28;20439;-87
2022/12/14 08:55:06;;;;;;;3.65;1.90;;;14.40;84.20;;;;;;5055369;28;20021;-87
2022/12/14 08:57:32;;;;;;;5.32;2.10;;;14.40;84.20;;;;;;5036858;28;20486;-87
2022/12/14 08:59:58;;;;;;;4.22;2.10;;;14.40;84.20;;;;;;5034267;28;20028;-87
2022/12/14 09:02:23;;;;;;;3.72;1.77;;;14.40;84.20;;;;;;5036609;28;20040;-89
2022/12/14 09:04:49;;;;;;;5.70;2.30;;;14.40;84.20;;;;;;5038618;28;20033;-87
2022/12/14 09:07:14;;;;;;;6.80;2.33;;;14.40;84.20;;;;;;5038545;28;20025;-88
2022/12/14 09:09:40;;;;;;;4.88;1.80;;;14.40;84.30;;;;;;5037206;28;20142;-87
2022/12/14 09:12:06;;;;;;;3.72;1.98;;;14.50;84.30;;;;;;5055897;28;20028;-88
2022/12/14 09:14:35;;;;;;;2.53;1.90;;;14.50;84.40;;;;;;5037996;28;20104;-88
2022/12/14 09:17:01;;;;;;;5.80;2.47;;;14.50;84.30;;;;;;5037324;28;20017;-87
2022/12/14 09:19:28;;;;;;;3.70;1.90;;;14.50;84.20;;;;;;5037869;28;20091;-88
2022/12/14 09:21:54;;;;;;;4.25;2.47;;;14.50;84.20;;;;;;5037998;28;20036;-88
2022/12/14 09:24:20;;;;;;;2.45;1.85;;;14.50;84.20;;;;;;5037549;28;20025;-88
2022/12/14 09:26:46;;;;;;;3.10;1.90;;;14.50;84.20;;;;;;5038039;28;20025;-87
2022/12/14 09:29:16;;;;;;;1.80;1.65;;;14.60;84.30;;;;;;5035899;28;20021;-87
2022/12/14 09:31:42;;;;;;;6.65;2.17;;;14.60;84.30;;;;;;5018781;28;20120;-88
2022/12/14 09:34:08;;;;;;;2.92;1.70;;;14.60;84.30;;;;;;5021308;28;20117;-88
2022/12/14 09:36:34;;;;;;;5.90;1.92;;;14.60;84.30;;;;;;5028180;28;20029;-87
2022/12/14 09:38:59;;;;;;;2.55;1.92;;;14.60;84.30;;;;;;5053980;28;20078;-87
2022/12/14 09:41:25;;;;;;;2.63;1.70;;;14.60;84.30;;;;;;5036437;28;20021;-88
2022/12/14 09:44:06;;;;;;;2.83;1.67;;;14.60;84.40;;;;;;5037859;28;20051;-87
2022/12/14 09:46:38;;;;;;;3.60;2.03;;;14.60;84.40;;;;;;5036672;28;20028;-92
2022/12/14 09:49:04;;;;;;;2.72;1.98;;;14.60;84.40;;;;;;5036557;28;20136;-92
2022/12/14 09:51:35;;;;;;;3.25;2.20;;;14.60;84.40;;;;;;5036653;28;20589;-93
2022/12/14 09:54:06;;;;;;;4.97;1.77;;;14.60;84.50;;;;;;5036945;28;20367;-93
2022/12/14 09:56:32;;;;;;;2.75;1.70;;;14.60;84.50;;;;;;5036576;28;20104;-93
2022/12/14 09:59:00;;;;;;;6.10;2.17;;;14.60;84.50;;;;;;5036664;28;20025;-92
2022/12/14 10:01:38;;;;;;;5.65;2.00;;;14.60;84.50;;;;;;5035556;28;20087;-91
2022/12/14 10:04:30;;;;;;;8.48;2.45;;;14.60;84.50;;;;;;5050985;28;20448;-92
2022/12/14 10:07:12;;;;;;;3.15;2.00;;;14.60;84.50;;;;;;5036542;28;20048;-92
2022/12/14 10:10:03;;;;;;;4.25;2.03;;;14.60;84.60;;;;;;5036283;28;20078;-92
2022/12/14 10:13:06;;;;;;;3.42;1.75;;;14.60;84.50;;;;;;5036257;28;20067;-92
2022/12/14 10:15:41;;;;;;;3.05;2.05;;;14.60;84.50;;;;;;5036887;28;20024;-93
2022/12/14 10:18:34;;;;;;;4.05;2.10;;;14.60;84.50;;;;;;5036417;28;20017;-93
2022/12/14 10:21:18;;;;;;;3.65;2.35;;;14.60;84.50;;;;;;5035187;28;20603;-93
2022/12/14 10:23:56;;;;;;;2.83;1.58;;;14.60;84.50;;;;;;5053977;28;20051;-93
2022/12/14 10:26:29;;;;;;;5.38;2.20;;;14.70;84.60;;;;;;5035448;28;20028;-88
2022/12/14 10:29:01;;;;;;;1.95;1.52;;;14.60;84.50;;;;;;5035645;28;20082;-89
2022/12/14 10:31:53;;;;;;;4.43;2.03;;;14.70;84.60;;;;;;5035680;28;20500;-88
2022/12/14 10:34:22;;;;;;;3.35;1.80;;;14.70;84.60;;;;;;5053546;28;20017;-88
2022/12/14 10:36:54;;;;;;;2.13;1.30;;;14.70;84.60;;;;;;5053167;28;20028;-88
2022/12/14 10:39:49;;;;;;;3.70;1.70;;;14.70;84.60;;;;;;5033910;28;20021;-92
2022/12/14 10:42:28;;;;;;;3.42;1.95;;;14.70;84.60;;;;;;5015707;28;20440;-88
2022/12/14 10:45:37;;;;;;;2.90;2.00;;;14.70;84.60;;;;;;5033566;28;20029;-88
2022/12/14 10:48:38;;;;;;;3.75;1.65;;;14.70;84.60;;;;;;5052377;28;20036;-88
2022/12/14 10:51:14;;;;;;;1.80;1.67;;;14.70;84.60;;;;;;5029937;28;20044;-85
2022/12/14 10:53:50;;;;;;;1.92;1.48;;;14.70;84.70;;;;;;5035452;28;20025;-89
2022/12/14 10:56:31;;;;;;;7.40;1.80;;;14.70;84.70;;;;;;5034961;28;20024;-86
2022/12/14 10:59:16;;;;;;;4.78;2.03;;;14.70;84.80;;;;;;5051343;28;20063;-86
2022/12/14 11:01:43;;;;;;;3.20;1.60;;;14.70;84.70;;;;;;5029051;28;20024;-86
2022/12/14 11:04:22;;;;;;;2.72;1.88;;;14.70;84.80;;;;;;5031037;28;20029;-87
2022/12/14 11:06:47;;;;;;;3.45;1.58;;;14.70;84.70;;;;;;5034555;28;20549;-86
2022/12/14 11:09:24;;;;;;;2.83;1.73;;;14.70;84.70;;;;;;5033950;28;20115;-86
2022/12/14 11:12:06;;;;;;;3.55;2.17;;;14.70;84.70;;;;;;5051757;28;20052;-87
2022/12/14 11:14:34;;;;;;;2.63;1.88;;;14.70;84.70;;;;;;5034198;28;20394;-85
2022/12/14 11:17:00;;;;;;;3.08;2.00;;;14.70;84.60;;;;;;5034689;28;20048;-90
2022/12/14 11:19:26;;;;;;;2.20;1.60;;;14.70;84.60;;;;;;5050947;28;20390;-86
2022/12/14 11:22:13;;;;;;;2.45;1.75;;;14.70;84.60;;;;;;5050451;28;20029;-88
2022/12/14 11:24:46;;;;;;;2.22;1.55;;;14.70;84.60;;;;;;5033860;28;20021;-86
2022/12/14 11:27:18;;;;;;;3.38;1.92;;;14.80;84.60;;;;;;5014356;28;20036;-87
2022/12/14 11:29:46;;;;;;;22.70;3.95;;;14.80;84.60;;;;;;5030808;28;20493;-89
2022/12/14 11:32:22;;;;;;;12.52;4.47;;;14.70;82.50;;;;;;5050990;28;20025;-89
2022/12/14 11:34:55;;;;;;;25.08;4.03;;;14.70;82.50;;;;;;5049737;28;20032;-87
2022/12/14 11:37:30;;;;;;;23.33;4.05;;;14.80;82.50;;;;;;5033810;28;20116;-87
2022/12/14 11:40:03;;;;;;;16.05;3.63;;;14.80;82.60;;;;;;5030997;28;20159;-86
2022/12/14 11:42:29;;;;;;;15.05;4.05;;;14.80;82.80;;;;;;5019914;28;20119;-86
2022/12/14 11:45:22;;;;;;;11.00;3.67;;;14.80;82.90;;;;;;5050913;28;20129;-86
2022/12/14 11:48:13;;;;;;;10.95;3.10;;;14.90;83.20;;;;;;5023558;28;20029;-89
2022/12/14 11:50:40;;;;;;;11.18;3.35;;;14.90;83.20;;;;;;5034160;28;20021;-91
2022/12/14 11:53:09;;;;;;;11.32;3.08;;;14.90;83.30;;;;;;5034280;28;20478;-91
2022/12/14 11:55:38;;;;;;;5.32;2.67;;;15.00;83.40;;;;;;5034185;28;20032;-91
2022/12/14 11:58:10;;;;;;;8.55;2.65;;;15.00;83.50;;;;;;5034271;28;20021;-91
2022/12/14 12:00:54;;;;;;;17.95;3.25;;;15.00;83.50;;;;;;5034198;28;20021;-92
2022/12/14 12:03:41;;;;;;;7.47;3.17;;;15.00;83.60;;;;;;5014687;28;20529;-92
2022/12/14 12:06:10;;;;;;;9.57;2.67;;;15.00;83.70;;;;;;5014494;28;20120;-92
2022/12/14 12:08:39;;;;;;;7.32;3.22;;;15.00;83.70;;;;;;5031975;28;20032;-92
2022/12/14 12:11:15;;;;;;;14.27;3.28;;;15.10;83.80;;;;;;5014494;28;20033;-92
2022/12/14 12:13:44;;;;;;;7.93;2.05;;;15.10;83.90;;;;;;5033351;28;20076;-91
2022/12/14 12:16:10;;;;;;;12.48;3.20;;;15.10;83.90;;;;;;5052059;28;20031;-92
2022/12/14 12:18:41;;;;;;;6.47;3.88;;;15.10;83.90;;;;;;5033819;28;20044;-91
2022/12/14 12:21:07;;;;;;;10.40;2.60;;;15.10;83.90;;;;;;5033934;28;20021;-91
2022/12/14 12:23:45;;;;;;;5.95;2.22;;;15.20;83.90;;;;;;5033974;28;20028;-92
2022/12/14 12:26:30;;;;;;;9.00;2.70;;;15.20;83.90;;;;;;5034051;28;20029;-91
2022/12/14 12:29:17;;;;;;;4.45;2.35;;;15.20;84.70;;;;;;5033894;28;20086;-91
2022/12/14 12:31:53;;;;;;;3.58;1.90;;;15.20;83.90;;;;;;5033648;28;20632;-91
2022/12/14 12:34:31;;;;;;;6.60;2.00;;;15.30;83.90;;;;;;5044939;28;20018;-92
2022/12/14 12:37:00;;;;;;;5.95;2.03;;;15.30;83.90;;;;;;5033958;28;20025;-91
2022/12/14 12:39:27;;;;;;;6.72;2.70;;;15.30;83.90;;;;;;5033825;28;20043;-92
2022/12/14 12:42:08;;;;;;;9.63;2.13;;;15.30;83.90;;;;;;5051664;28;20029;-92
2022/12/14 12:44:51;;;;;;;12.35;2.72;;;15.30;83.90;;;;;;5033715;28;20032;-92
2022/12/14 12:47:40;;;;;;;4.75;1.92;;;15.30;84.00;;;;;;5033658;28;20032;-91
2022/12/14 12:50:18;;;;;;;3.78;1.98;;;15.40;84.00;;;;;;5033691;28;20025;-92
2022/12/14 12:52:59;;;;;;;7.70;2.30;;;15.40;84.00;;;;;;5030291;28;20025;-92
2022/12/14 12:55:26;;;;;;;4.30;1.90;;;15.30;83.90;;;;;;5037466;28;20034;-92
2022/12/14 12:57:55;;;;;;;6.68;1.70;;;15.40;84.00;;;;;;5037416;28;20052;-92
2022/12/14 13:00:26;;;;;;;6.85;2.10;;;15.40;84.10;;;;;;5055038;28;20101;-92
2022/12/14 13:03:17;;;;;;;4.18;1.80;;;15.40;84.10;;;;;;5037444;28;20037;-92
2022/12/14 13:05:43;;;;;;;10.13;2.17;;;15.40;84.10;;;;;;5037032;28;20024;-92
2022/12/14 13:08:32;;;;;;;3.65;2.03;;;15.40;84.10;;;;;;5037053;28;20025;-92
2022/12/14 13:11:09;;;;;;;4.18;2.00;;;15.40;84.10;;;;;;5037029;28;20025;-92
2022/12/14 13:16:19;;;;;;;4.82;1.80;;;15.40;84.20;;;;;;5074489;22;20140;-91
2022/12/14 13:18:47;;;;;;;;;;;15.40;84.20;;;;;;5034223;28;20025;-91
2022/12/14 13:21:34;;;;;;;3.47;1.80;;;15.40;84.30;;;;;;5034075;28;19958;-91
2022/12/14 13:24:01;;;;;;;2.75;1.60;;;15.40;84.20;;;;;;5033793;28;20064;-91
2022/12/14 13:26:54;;;;;;;4.40;2.08;;;15.40;84.20;;;;;;5034287;28;20029;-91